sensor_id;sensor_type;location;lat;lon;timestamp;temperature;humidity
5134;DHT22;2585;48.696;10.066;2024-03-25T00:00:19;3.30;92.30
5134;DHT22;2585;48.696;10.066;2024-03-25T00:02:46;3.30;92.30
5134;DHT22;2585;48.696;10.066;2024-03-25T00:05:12;3.30;92.10
5134;DHT22;2585;48.696;10.066;2024-03-25T00:07:40;3.30;92.20
5134;DHT22;2585;48.696;10.066;2024-03-25T00:10:07;3.30;92.20
5134;DHT22;2585;48.696;10.066;2024-03-25T00:12:35;3.30;92.20
5134;DHT22;2585;48.696;10.066;2024-03-25T00:15:01;3.30;92.20
5134;DHT22;2585;48.696;10.066;2024-03-25T00:17:27;3.30;92.10
5134;DHT22;2585;48.696;10.066;2024-03-25T00:19:53;3.30;92.20
5134;DHT22;2585;48.696;10.066;2024-03-25T00:22:20;3.30;92.10
5134;DHT22;2585;48.696;10.066;2024-03-25T00:24:46;3.30;92.20
5134;DHT22;2585;48.696;10.066;2024-03-25T00:27:13;3.30;92.40
5134;DHT22;2585;48.696;10.066;2024-03-25T00:29:39;3.20;92.40
5134;DHT22;2585;48.696;10.066;2024-03-25T00:32:05;3.20;92.30
5134;DHT22;2585;48.696;10.066;2024-03-25T00:34:32;3.20;92.50
5134;DHT22;2585;48.696;10.066;2024-03-25T00:37:01;3.20;92.40
5134;DHT22;2585;48.696;10.066;2024-03-25T00:39:27;3.20;92.40
5134;DHT22;2585;48.696;10.066;2024-03-25T00:41:53;3.20;92.30
5134;DHT22;2585;48.696;10.066;2024-03-25T00:44:19;3.20;92.20
5134;DHT22;2585;48.696;10.066;2024-03-25T00:46:45;3.20;92.10
5134;DHT22;2585;48.696;10.066;2024-03-25T00:49:12;3.20;92.20
5134;DHT22;2585;48.696;10.066;2024-03-25T00:51:38;3.20;92.10
5134;DHT22;2585;48.696;10.066;2024-03-25T00:54:04;3.20;92.00
5134;DHT22;2585;48.696;10.066;2024-03-25T00:56:30;3.20;92.00
5134;DHT22;2585;48.696;10.066;2024-03-25T00:58:56;3.20;92.00
5134;DHT22;2585;48.696;10.066;2024-03-25T01:01:24;3.20;92.20
5134;DHT22;2585;48.696;10.066;2024-03-25T01:03:50;3.20;92.30
5134;DHT22;2585;48.696;10.066;2024-03-25T01:06:15;3.20;92.40
5134;DHT22;2585;48.696;10.066;2024-03-25T01:08:41;3.20;92.30
5134;DHT22;2585;48.696;10.066;2024-03-25T01:11:07;3.20;92.30
5134;DHT22;2585;48.696;10.066;2024-03-25T01:13:33;3.20;92.10
5134;DHT22;2585;48.696;10.066;2024-03-25T01:15:59;3.20;92.20
5134;DHT22;2585;48.696;10.066;2024-03-25T01:18:24;3.10;92.20
5134;DHT22;2585;48.696;10.066;2024-03-25T01:20:50;3.10;92.20
5134;DHT22;2585;48.696;10.066;2024-03-25T01:23:16;3.10;92.20
5134;DHT22;2585;48.696;10.066;2024-03-25T01:25:42;3.10;92.20
5134;DHT22;2585;48.696;10.066;2024-03-25T01:28:08;3.00;92.20
5134;DHT22;2585;48.696;10.066;2024-03-25T01:30:34;3.00;92.30
5134;DHT22;2585;48.696;10.066;2024-03-25T01:33:02;2.90;92.40
5134;DHT22;2585;48.696;10.066;2024-03-25T01:35:28;3.00;92.50
5134;DHT22;2585;48.696;10.066;2024-03-25T01:37:54;3.00;92.60
5134;DHT22;2585;48.696;10.066;2024-03-25T01:40:19;3.00;92.50
5134;DHT22;2585;48.696;10.066;2024-03-25T01:42:59;2.90;92.60
5134;DHT22;2585;48.696;10.066;2024-03-25T01:45:25;2.90;92.70
5134;DHT22;2585;48.696;10.066;2024-03-25T01:47:53;2.90;92.70
5134;DHT22;2585;48.696;10.066;2024-03-25T01:50:21;2.90;92.60
5134;DHT22;2585;48.696;10.066;2024-03-25T01:52:47;2.90;92.60
5134;DHT22;2585;48.696;10.066;2024-03-25T01:55:27;2.90;92.70
5134;DHT22;2585;48.696;10.066;2024-03-25T01:57:54;2.90;92.70
5134;DHT22;2585;48.696;10.066;2024-03-25T02:00:20;2.90;92.80
5134;DHT22;2585;48.696;10.066;2024-03-25T02:02:46;2.90;92.80
5134;DHT22;2585;48.696;10.066;2024-03-25T02:05:15;2.90;92.90
5134;DHT22;2585;48.696;10.066;2024-03-25T02:07:41;2.90;92.90
5134;DHT22;2585;48.696;10.066;2024-03-25T02:10:08;2.90;92.90
5134;DHT22;2585;48.696;10.066;2024-03-25T02:12:45;2.90;93.00
5134;DHT22;2585;48.696;10.066;2024-03-25T02:15:12;2.90;93.00
5134;DHT22;2585;48.696;10.066;2024-03-25T02:17:38;2.90;92.90
5134;DHT22;2585;48.696;10.066;2024-03-25T02:20:05;2.90;92.90
5134;DHT22;2585;48.696;10.066;2024-03-25T02:22:33;2.90;92.90
5134;DHT22;2585;48.696;10.066;2024-03-25T02:24:59;2.90;92.90
5134;DHT22;2585;48.696;10.066;2024-03-25T02:27:26;2.80;92.90
5134;DHT22;2585;48.696;10.066;2024-03-25T02:32:31;2.80;92.80
5134;DHT22;2585;48.696;10.066;2024-03-25T02:34:57;2.80;92.80
5134;DHT22;2585;48.696;10.066;2024-03-25T02:37:24;2.80;92.80
5134;DHT22;2585;48.696;10.066;2024-03-25T02:39:52;2.80;92.90
5134;DHT22;2585;48.696;10.066;2024-03-25T02:42:18;2.70;92.90
5134;DHT22;2585;48.696;10.066;2024-03-25T02:44:45;2.80;93.00
5134;DHT22;2585;48.696;10.066;2024-03-25T02:47:11;2.80;93.10
5134;DHT22;2585;48.696;10.066;2024-03-25T02:49:37;2.80;93.00
5134;DHT22;2585;48.696;10.066;2024-03-25T02:52:03;2.90;93.10
5134;DHT22;2585;48.696;10.066;2024-03-25T02:54:29;2.80;93.10
5134;DHT22;2585;48.696;10.066;2024-03-25T02:56:55;2.90;93.10
5134;DHT22;2585;48.696;10.066;2024-03-25T02:59:21;2.90;93.10
5134;DHT22;2585;48.696;10.066;2024-03-25T03:01:47;2.90;93.10
5134;DHT22;2585;48.696;10.066;2024-03-25T03:04:12;2.90;93.10
5134;DHT22;2585;48.696;10.066;2024-03-25T03:06:38;2.90;93.00
5134;DHT22;2585;48.696;10.066;2024-03-25T03:09:04;2.90;93.00
5134;DHT22;2585;48.696;10.066;2024-03-25T03:11:31;3.00;92.90
5134;DHT22;2585;48.696;10.066;2024-03-25T03:13:56;3.00;92.80
5134;DHT22;2585;48.696;10.066;2024-03-25T03:16:22;3.00;92.80
5134;DHT22;2585;48.696;10.066;2024-03-25T03:18:48;3.00;92.80
5134;DHT22;2585;48.696;10.066;2024-03-25T03:21:14;3.00;92.90
5134;DHT22;2585;48.696;10.066;2024-03-25T03:23:40;3.00;92.90
5134;DHT22;2585;48.696;10.066;2024-03-25T03:26:05;3.00;92.80
5134;DHT22;2585;48.696;10.066;2024-03-25T03:28:31;3.00;92.70
5134;DHT22;2585;48.696;10.066;2024-03-25T03:30:57;3.10;92.50
5134;DHT22;2585;48.696;10.066;2024-03-25T03:33:23;3.10;92.30
5134;DHT22;2585;48.696;10.066;2024-03-25T03:35:49;3.00;92.30
5134;DHT22;2585;48.696;10.066;2024-03-25T03:38:15;3.00;92.30
5134;DHT22;2585;48.696;10.066;2024-03-25T03:40:41;3.00;92.40
5134;DHT22;2585;48.696;10.066;2024-03-25T03:43:07;3.00;92.20
5134;DHT22;2585;48.696;10.066;2024-03-25T03:45:34;3.00;92.20
5134;DHT22;2585;48.696;10.066;2024-03-25T03:48:01;3.00;92.50
5134;DHT22;2585;48.696;10.066;2024-03-25T03:50:27;2.90;92.60
5134;DHT22;2585;48.696;10.066;2024-03-25T03:52:52;3.00;92.60
5134;DHT22;2585;48.696;10.066;2024-03-25T03:55:19;3.00;92.50
5134;DHT22;2585;48.696;10.066;2024-03-25T03:57:45;2.90;92.40
5134;DHT22;2585;48.696;10.066;2024-03-25T04:00:11;2.90;92.50
5134;DHT22;2585;48.696;10.066;2024-03-25T04:02:37;2.90;92.60
5134;DHT22;2585;48.696;10.066;2024-03-25T04:05:04;2.90;92.60
5134;DHT22;2585;48.696;10.066;2024-03-25T04:07:29;2.90;92.60
5134;DHT22;2585;48.696;10.066;2024-03-25T04:09:58;2.90;92.60
5134;DHT22;2585;48.696;10.066;2024-03-25T04:12:25;2.90;92.60
5134;DHT22;2585;48.696;10.066;2024-03-25T04:14:51;2.80;92.60
5134;DHT22;2585;48.696;10.066;2024-03-25T04:17:21;2.70;92.60
5134;DHT22;2585;48.696;10.066;2024-03-25T04:19:49;2.60;92.60
5134;DHT22;2585;48.696;10.066;2024-03-25T04:22:14;2.60;92.70
5134;DHT22;2585;48.696;10.066;2024-03-25T04:24:40;2.60;92.80
5134;DHT22;2585;48.696;10.066;2024-03-25T04:27:06;2.50;92.80
5134;DHT22;2585;48.696;10.066;2024-03-25T04:29:32;2.50;92.90
5134;DHT22;2585;48.696;10.066;2024-03-25T04:31:58;2.50;92.90
5134;DHT22;2585;48.696;10.066;2024-03-25T04:34:24;2.40;92.90
5134;DHT22;2585;48.696;10.066;2024-03-25T04:36:49;2.30;92.90
5134;DHT22;2585;48.696;10.066;2024-03-25T04:39:15;2.30;93.00
5134;DHT22;2585;48.696;10.066;2024-03-25T04:41:42;2.30;93.10
5134;DHT22;2585;48.696;10.066;2024-03-25T04:44:07;2.30;93.20
5134;DHT22;2585;48.696;10.066;2024-03-25T04:46:33;2.30;93.30
5134;DHT22;2585;48.696;10.066;2024-03-25T04:48:59;2.30;93.30
5134;DHT22;2585;48.696;10.066;2024-03-25T04:51:25;2.40;93.40
5134;DHT22;2585;48.696;10.066;2024-03-25T04:53:52;2.40;93.40
5134;DHT22;2585;48.696;10.066;2024-03-25T04:56:18;2.50;93.50
5134;DHT22;2585;48.696;10.066;2024-03-25T04:58:44;2.50;93.50
5134;DHT22;2585;48.696;10.066;2024-03-25T05:01:10;2.50;93.50
5134;DHT22;2585;48.696;10.066;2024-03-25T05:03:36;2.60;93.50
5134;DHT22;2585;48.696;10.066;2024-03-25T05:06:02;2.60;93.50
5134;DHT22;2585;48.696;10.066;2024-03-25T05:08:28;2.60;93.50
5134;DHT22;2585;48.696;10.066;2024-03-25T05:10:54;2.60;93.50
5134;DHT22;2585;48.696;10.066;2024-03-25T05:13:20;2.60;93.50
5134;DHT22;2585;48.696;10.066;2024-03-25T05:15:52;2.60;93.60
5134;DHT22;2585;48.696;10.066;2024-03-25T05:18:18;2.70;93.60
5134;DHT22;2585;48.696;10.066;2024-03-25T05:20:44;2.70;93.60
5134;DHT22;2585;48.696;10.066;2024-03-25T05:23:10;2.70;93.60
5134;DHT22;2585;48.696;10.066;2024-03-25T05:25:36;2.80;93.60
5134;DHT22;2585;48.696;10.066;2024-03-25T05:28:04;2.80;93.60
5134;DHT22;2585;48.696;10.066;2024-03-25T05:30:30;2.80;93.60
5134;DHT22;2585;48.696;10.066;2024-03-25T05:32:56;2.80;93.60
5134;DHT22;2585;48.696;10.066;2024-03-25T05:35:22;2.90;93.50
5134;DHT22;2585;48.696;10.066;2024-03-25T05:37:48;2.90;93.50
5134;DHT22;2585;48.696;10.066;2024-03-25T05:40:14;2.90;93.50
5134;DHT22;2585;48.696;10.066;2024-03-25T05:42:44;2.90;93.50
5134;DHT22;2585;48.696;10.066;2024-03-25T05:45:10;2.90;93.50
5134;DHT22;2585;48.696;10.066;2024-03-25T05:47:36;2.90;93.50
5134;DHT22;2585;48.696;10.066;2024-03-25T05:50:01;2.90;93.40
5134;DHT22;2585;48.696;10.066;2024-03-25T05:52:31;3.00;93.50
5134;DHT22;2585;48.696;10.066;2024-03-25T05:54:57;3.00;93.40
5134;DHT22;2585;48.696;10.066;2024-03-25T05:57:23;3.00;93.40
5134;DHT22;2585;48.696;10.066;2024-03-25T05:59:49;3.10;93.30
5134;DHT22;2585;48.696;10.066;2024-03-25T06:02:15;3.10;93.20
5134;DHT22;2585;48.696;10.066;2024-03-25T06:04:41;3.10;93.10
5134;DHT22;2585;48.696;10.066;2024-03-25T06:07:07;3.10;93.20
5134;DHT22;2585;48.696;10.066;2024-03-25T06:09:32;3.10;93.10
5134;DHT22;2585;48.696;10.066;2024-03-25T06:11:58;3.20;93.20
5134;DHT22;2585;48.696;10.066;2024-03-25T06:14:24;3.20;93.00
5134;DHT22;2585;48.696;10.066;2024-03-25T06:16:50;3.30;93.10
5134;DHT22;2585;48.696;10.066;2024-03-25T06:19:16;3.30;93.10
5134;DHT22;2585;48.696;10.066;2024-03-25T06:21:42;3.40;93.00
5134;DHT22;2585;48.696;10.066;2024-03-25T06:24:08;3.40;92.80
5134;DHT22;2585;48.696;10.066;2024-03-25T06:26:34;3.40;92.70
5134;DHT22;2585;48.696;10.066;2024-03-25T06:29:00;3.50;92.80
5134;DHT22;2585;48.696;10.066;2024-03-25T06:31:26;3.60;92.80
5134;DHT22;2585;48.696;10.066;2024-03-25T06:34:10;3.60;92.90
5134;DHT22;2585;48.696;10.066;2024-03-25T06:36:48;3.60;92.70
5134;DHT22;2585;48.696;10.066;2024-03-25T06:39:14;3.60;92.40
5134;DHT22;2585;48.696;10.066;2024-03-25T06:41:40;3.60;92.40
5134;DHT22;2585;48.696;10.066;2024-03-25T06:44:07;3.60;92.30
5134;DHT22;2585;48.696;10.066;2024-03-25T06:46:33;3.60;92.20
5134;DHT22;2585;48.696;10.066;2024-03-25T06:48:59;3.60;92.10
5134;DHT22;2585;48.696;10.066;2024-03-25T06:51:25;3.70;92.20
5134;DHT22;2585;48.696;10.066;2024-03-25T06:53:52;3.70;92.20
5134;DHT22;2585;48.696;10.066;2024-03-25T06:56:18;3.80;92.20
5134;DHT22;2585;48.696;10.066;2024-03-25T06:58:44;3.70;92.00
5134;DHT22;2585;48.696;10.066;2024-03-25T07:01:10;3.70;91.50
5134;DHT22;2585;48.696;10.066;2024-03-25T07:03:39;3.70;91.20
5134;DHT22;2585;48.696;10.066;2024-03-25T07:06:05;3.70;91.30
5134;DHT22;2585;48.696;10.066;2024-03-25T07:08:31;3.70;91.50
5134;DHT22;2585;48.696;10.066;2024-03-25T07:10:57;3.80;91.60
5134;DHT22;2585;48.696;10.066;2024-03-25T07:13:23;3.90;91.60
5134;DHT22;2585;48.696;10.066;2024-03-25T07:15:50;4.00;91.20
5134;DHT22;2585;48.696;10.066;2024-03-25T07:18:16;4.10;90.80
5134;DHT22;2585;48.696;10.066;2024-03-25T07:20:43;4.10;90.60
5134;DHT22;2585;48.696;10.066;2024-03-25T07:23:10;4.20;88.60
5134;DHT22;2585;48.696;10.066;2024-03-25T07:25:36;4.20;87.40
5134;DHT22;2585;48.696;10.066;2024-03-25T07:28:02;4.30;88.90
5134;DHT22;2585;48.696;10.066;2024-03-25T07:30:28;4.30;88.40
5134;DHT22;2585;48.696;10.066;2024-03-25T07:32:55;4.30;85.50
5134;DHT22;2585;48.696;10.066;2024-03-25T07:35:21;4.20;84.10
5134;DHT22;2585;48.696;10.066;2024-03-25T07:37:47;4.20;84.50
5134;DHT22;2585;48.696;10.066;2024-03-25T07:40:20;4.20;84.70
5134;DHT22;2585;48.696;10.066;2024-03-25T07:42:47;4.20;86.00
5134;DHT22;2585;48.696;10.066;2024-03-25T07:45:13;4.20;86.80
5134;DHT22;2585;48.696;10.066;2024-03-25T07:47:40;4.10;83.90
5134;DHT22;2585;48.696;10.066;2024-03-25T07:50:06;4.10;82.80
5134;DHT22;2585;48.696;10.066;2024-03-25T07:52:32;4.10;83.60
5134;DHT22;2585;48.696;10.066;2024-03-25T07:54:58;4.10;81.70
5134;DHT22;2585;48.696;10.066;2024-03-25T07:57:24;4.20;84.80
5134;DHT22;2585;48.696;10.066;2024-03-25T07:59:50;4.30;82.90
5134;DHT22;2585;48.696;10.066;2024-03-25T08:02:16;4.40;79.60
5134;DHT22;2585;48.696;10.066;2024-03-25T08:04:41;4.50;75.60
5134;DHT22;2585;48.696;10.066;2024-03-25T08:07:07;4.60;68.30
5134;DHT22;2585;48.696;10.066;2024-03-25T08:09:33;4.70;68.50
5134;DHT22;2585;48.696;10.066;2024-03-25T08:11:59;4.90;72.70
5134;DHT22;2585;48.696;10.066;2024-03-25T08:14:25;5.10;66.80
5134;DHT22;2585;48.696;10.066;2024-03-25T08:16:51;5.40;61.10
5134;DHT22;2585;48.696;10.066;2024-03-25T08:19:16;6.10;68.20
5134;DHT22;2585;48.696;10.066;2024-03-25T08:21:42;6.40;1.00
5134;DHT22;2585;48.696;10.066;2024-03-25T08:24:08;6.30;1.00
5134;DHT22;2585;48.696;10.066;2024-03-25T08:26:34;6.20;1.00
5134;DHT22;2585;48.696;10.066;2024-03-25T08:29:00;6.00;95.20
5134;DHT22;2585;48.696;10.066;2024-03-25T08:31:26;6.00;1.00
5134;DHT22;2585;48.696;10.066;2024-03-25T08:33:52;5.80;93.20
5134;DHT22;2585;48.696;10.066;2024-03-25T08:36:18;5.70;92.00
5134;DHT22;2585;48.696;10.066;2024-03-25T08:38:44;6.00;1.00
5134;DHT22;2585;48.696;10.066;2024-03-25T08:41:10;6.50;76.30
5134;DHT22;2585;48.696;10.066;2024-03-25T08:43:36;6.70;8.00
5134;DHT22;2585;48.696;10.066;2024-03-25T08:46:02;6.90;81.20
5134;DHT22;2585;48.696;10.066;2024-03-25T08:48:29;7.10;75.40
5134;DHT22;2585;48.696;10.066;2024-03-25T08:50:55;7.00;1.00
5134;DHT22;2585;48.696;10.066;2024-03-25T08:53:21;8.00;74.40
5134;DHT22;2585;48.696;10.066;2024-03-25T08:55:47;8.80;70.30
5134;DHT22;2585;48.696;10.066;2024-03-25T08:58:14;8.60;65.70
5134;DHT22;2585;48.696;10.066;2024-03-25T09:00:40;8.20;59.70
5134;DHT22;2585;48.696;10.066;2024-03-25T09:03:06;7.80;15.60
5134;DHT22;2585;48.696;10.066;2024-03-25T09:05:32;7.20;1.00
5134;DHT22;2585;48.696;10.066;2024-03-25T09:07:59;7.60;54.30
5134;DHT22;2585;48.696;10.066;2024-03-25T09:10:25;7.80;73.00
5134;DHT22;2585;48.696;10.066;2024-03-25T09:13:10;8.00;89.30
5134;DHT22;2585;48.696;10.066;2024-03-25T09:15:36;7.90;1.00
5134;DHT22;2585;48.696;10.066;2024-03-25T09:18:02;7.60;67.90
5134;DHT22;2585;48.696;10.066;2024-03-25T09:20:28;7.30;84.60
5134;DHT22;2585;48.696;10.066;2024-03-25T09:22:54;7.10;1.00
5134;DHT22;2585;48.696;10.066;2024-03-25T09:25:20;6.70;64.10
5134;DHT22;2585;48.696;10.066;2024-03-25T09:27:50;6.70;1.00
5134;DHT22;2585;48.696;10.066;2024-03-25T09:30:16;6.50;1.00
5134;DHT22;2585;48.696;10.066;2024-03-25T09:32:45;6.60;1.00
5134;DHT22;2585;48.696;10.066;2024-03-25T09:35:11;6.70;1.00
5134;DHT22;2585;48.696;10.066;2024-03-25T09:37:37;6.70;90.50
5134;DHT22;2585;48.696;10.066;2024-03-25T09:40:04;6.60;62.20
5134;DHT22;2585;48.696;10.066;2024-03-25T09:42:36;6.80;66.50
5134;DHT22;2585;48.696;10.066;2024-03-25T09:45:08;7.50;1.00
5134;DHT22;2585;48.696;10.066;2024-03-25T09:47:35;8.30;1.00
5134;DHT22;2585;48.696;10.066;2024-03-25T09:50:04;9.20;76.80
5134;DHT22;2585;48.696;10.066;2024-03-25T09:52:31;10.00;90.30
5134;DHT22;2585;48.696;10.066;2024-03-25T09:54:57;10.30;1.00
5134;DHT22;2585;48.696;10.066;2024-03-25T09:57:23;10.80;1.00
5134;DHT22;2585;48.696;10.066;2024-03-25T09:59:50;11.10;1.00
5134;DHT22;2585;48.696;10.066;2024-03-25T10:02:17;11.00;86.80
5134;DHT22;2585;48.696;10.066;2024-03-25T10:04:46;10.20;66.60
5134;DHT22;2585;48.696;10.066;2024-03-25T10:07:22;9.50;51.50
5134;DHT22;2585;48.696;10.066;2024-03-25T10:09:49;9.10;26.00
5134;DHT22;2585;48.696;10.066;2024-03-25T10:12:15;8.70;1.00
5134;DHT22;2585;48.696;10.066;2024-03-25T10:14:41;8.60;1.00
5134;DHT22;2585;48.696;10.066;2024-03-25T10:17:07;9.30;1.00
5134;DHT22;2585;48.696;10.066;2024-03-25T10:19:33;10.10;1.00
5134;DHT22;2585;48.696;10.066;2024-03-25T10:22:07;10.40;1.00
5134;DHT22;2585;48.696;10.066;2024-03-25T10:24:43;11.00;1.00
5134;DHT22;2585;48.696;10.066;2024-03-25T10:27:22;11.50;1.00
5134;DHT22;2585;48.696;10.066;2024-03-25T10:29:54;11.60;1.00
5134;DHT22;2585;48.696;10.066;2024-03-25T10:32:23;12.30;1.00
5134;DHT22;2585;48.696;10.066;2024-03-25T10:34:50;12.80;1.00
5134;DHT22;2585;48.696;10.066;2024-03-25T10:37:17;13.70;1.00
5134;DHT22;2585;48.696;10.066;2024-03-25T10:39:50;12.30;1.00
5134;DHT22;2585;48.696;10.066;2024-03-25T10:42:20;11.40;88.60
5134;DHT22;2585;48.696;10.066;2024-03-25T10:44:49;10.80;79.10
5134;DHT22;2585;48.696;10.066;2024-03-25T10:47:25;11.10;77.40
5134;DHT22;2585;48.696;10.066;2024-03-25T10:52:20;11.70;69.70
5134;DHT22;2585;48.696;10.066;2024-03-25T10:54:47;12.60;77.10
5134;DHT22;2585;48.696;10.066;2024-03-25T10:57:14;12.70;72.30
5134;DHT22;2585;48.696;10.066;2024-03-25T10:59:43;13.20;71.40
5134;DHT22;2585;48.696;10.066;2024-03-25T11:02:10;14.30;79.50
5134;DHT22;2585;48.696;10.066;2024-03-25T11:04:37;12.80;31.90
5134;DHT22;2585;48.696;10.066;2024-03-25T11:09:33;12.70;9.70
5134;DHT22;2585;48.696;10.066;2024-03-25T11:11:59;12.90;1.60
5134;DHT22;2585;48.696;10.066;2024-03-25T11:14:25;11.20;1.00
5134;DHT22;2585;48.696;10.066;2024-03-25T11:16:52;10.20;1.00
5134;DHT22;2585;48.696;10.066;2024-03-25T11:19:19;10.20;1.00
5134;DHT22;2585;48.696;10.066;2024-03-25T11:21:47;9.90;1.00
5134;DHT22;2585;48.696;10.066;2024-03-25T11:24:12;10.00;1.00
5134;DHT22;2585;48.696;10.066;2024-03-25T11:26:42;10.80;1.00
5134;DHT22;2585;48.696;10.066;2024-03-25T11:29:08;11.90;1.00
5134;DHT22;2585;48.696;10.066;2024-03-25T11:31:38;12.70;1.00
5134;DHT22;2585;48.696;10.066;2024-03-25T11:34:05;11.60;1.00
5134;DHT22;2585;48.696;10.066;2024-03-25T11:36:31;11.30;1.00
5134;DHT22;2585;48.696;10.066;2024-03-25T11:39:01;10.70;1.00
5134;DHT22;2585;48.696;10.066;2024-03-25T11:41:35;10.40;91.60
5134;DHT22;2585;48.696;10.066;2024-03-25T11:44:04;9.70;86.80
5134;DHT22;2585;48.696;10.066;2024-03-25T11:46:30;9.40;83.40
5134;DHT22;2585;48.696;10.066;2024-03-25T11:48:56;9.30;82.40
5134;DHT22;2585;48.696;10.066;2024-03-25T11:51:22;9.30;80.90
5134;DHT22;2585;48.696;10.066;2024-03-25T11:53:48;9.30;78.90
5134;DHT22;2585;48.696;10.066;2024-03-25T11:56:14;9.30;78.50
5134;DHT22;2585;48.696;10.066;2024-03-25T11:58:40;9.20;76.30
5134;DHT22;2585;48.696;10.066;2024-03-25T12:01:07;9.10;74.00
5134;DHT22;2585;48.696;10.066;2024-03-25T12:03:34;8.80;71.80
5134;DHT22;2585;48.696;10.066;2024-03-25T12:06:00;8.60;70.20
5134;DHT22;2585;48.696;10.066;2024-03-25T12:08:27;8.60;68.90
5134;DHT22;2585;48.696;10.066;2024-03-25T12:10:55;8.80;71.30
5134;DHT22;2585;48.696;10.066;2024-03-25T12:13:39;8.80;68.80
5134;DHT22;2585;48.696;10.066;2024-03-25T12:16:08;8.60;66.40
5134;DHT22;2585;48.696;10.066;2024-03-25T12:18:36;8.50;65.50
5134;DHT22;2585;48.696;10.066;2024-03-25T12:21:05;8.50;65.30
5134;DHT22;2585;48.696;10.066;2024-03-25T12:23:32;8.80;67.40
5134;DHT22;2585;48.696;10.066;2024-03-25T12:26:00;9.00;66.10
5134;DHT22;2585;48.696;10.066;2024-03-25T12:28:26;9.50;68.60
5134;DHT22;2585;48.696;10.066;2024-03-25T12:30:55;9.60;65.70
5134;DHT22;2585;48.696;10.066;2024-03-25T12:33:22;9.30;60.80
5134;DHT22;2585;48.696;10.066;2024-03-25T12:35:49;9.80;65.50
5134;DHT22;2585;48.696;10.066;2024-03-25T12:38:42;9.80;62.50
5134;DHT22;2585;48.696;10.066;2024-03-25T12:41:10;10.90;67.50
5134;DHT22;2585;48.696;10.066;2024-03-25T12:43:41;10.90;64.70
5134;DHT22;2585;48.696;10.066;2024-03-25T12:46:07;11.00;63.70
5134;DHT22;2585;48.696;10.066;2024-03-25T12:48:35;11.00;58.00
5134;DHT22;2585;48.696;10.066;2024-03-25T12:51:01;10.80;49.10
5134;DHT22;2585;48.696;10.066;2024-03-25T12:53:27;10.90;52.80
5134;DHT22;2585;48.696;10.066;2024-03-25T12:55:53;10.90;41.10
5134;DHT22;2585;48.696;10.066;2024-03-25T12:58:19;10.90;36.20
5134;DHT22;2585;48.696;10.066;2024-03-25T13:00:45;10.80;30.00
5134;DHT22;2585;48.696;10.066;2024-03-25T13:03:11;10.80;24.10
5134;DHT22;2585;48.696;10.066;2024-03-25T13:05:37;11.00;25.70
5134;DHT22;2585;48.696;10.066;2024-03-25T13:08:04;11.40;20.90
5134;DHT22;2585;48.696;10.066;2024-03-25T13:10:30;12.00;21.40
5134;DHT22;2585;48.696;10.066;2024-03-25T13:12:56;12.50;29.30
5134;DHT22;2585;48.696;10.066;2024-03-25T13:15:23;12.30;15.10
5134;DHT22;2585;48.696;10.066;2024-03-25T13:17:49;11.90;4.70
5134;DHT22;2585;48.696;10.066;2024-03-25T13:20:15;11.50;1.00
5134;DHT22;2585;48.696;10.066;2024-03-25T13:22:41;11.40;1.00
5134;DHT22;2585;48.696;10.066;2024-03-25T13:25:09;11.80;1.00
5134;DHT22;2585;48.696;10.066;2024-03-25T13:27:34;11.70;1.00
5134;DHT22;2585;48.696;10.066;2024-03-25T13:30:00;12.10;1.00
5134;DHT22;2585;48.696;10.066;2024-03-25T13:32:26;12.40;1.00
5134;DHT22;2585;48.696;10.066;2024-03-25T13:34:52;11.80;1.00
5134;DHT22;2585;48.696;10.066;2024-03-25T13:37:18;12.10;1.00
5134;DHT22;2585;48.696;10.066;2024-03-25T13:39:44;12.60;1.00
5134;DHT22;2585;48.696;10.066;2024-03-25T13:42:11;13.20;1.00
5134;DHT22;2585;48.696;10.066;2024-03-25T13:44:37;13.40;1.00
5134;DHT22;2585;48.696;10.066;2024-03-25T13:47:04;13.60;1.00
5134;DHT22;2585;48.696;10.066;2024-03-25T13:49:29;13.80;1.00
5134;DHT22;2585;48.696;10.066;2024-03-25T13:51:58;13.90;1.00
5134;DHT22;2585;48.696;10.066;2024-03-25T13:54:26;13.50;1.00
5134;DHT22;2585;48.696;10.066;2024-03-25T13:56:52;13.70;1.00
5134;DHT22;2585;48.696;10.066;2024-03-25T13:59:18;13.80;1.00
5134;DHT22;2585;48.696;10.066;2024-03-25T14:01:44;14.10;1.00
5134;DHT22;2585;48.696;10.066;2024-03-25T14:04:10;13.70;1.00
5134;DHT22;2585;48.696;10.066;2024-03-25T14:06:36;13.30;1.00
5134;DHT22;2585;48.696;10.066;2024-03-25T14:09:03;13.80;1.00
5134;DHT22;2585;48.696;10.066;2024-03-25T14:11:35;13.70;1.00
5134;DHT22;2585;48.696;10.066;2024-03-25T14:14:02;13.70;1.00
5134;DHT22;2585;48.696;10.066;2024-03-25T14:16:28;13.50;1.00
5134;DHT22;2585;48.696;10.066;2024-03-25T14:18:54;13.00;1.00
5134;DHT22;2585;48.696;10.066;2024-03-25T14:21:20;13.00;1.00
5134;DHT22;2585;48.696;10.066;2024-03-25T14:23:46;12.90;1.00
5134;DHT22;2585;48.696;10.066;2024-03-25T14:26:12;12.70;1.00
5134;DHT22;2585;48.696;10.066;2024-03-25T14:28:41;12.40;1.00
5134;DHT22;2585;48.696;10.066;2024-03-25T14:31:07;12.20;1.00
5134;DHT22;2585;48.696;10.066;2024-03-25T14:33:32;11.80;1.00
5134;DHT22;2585;48.696;10.066;2024-03-25T14:35:58;11.90;1.00
5134;DHT22;2585;48.696;10.066;2024-03-25T14:38:24;11.60;1.00
5134;DHT22;2585;48.696;10.066;2024-03-25T14:40:50;11.60;92.20
5134;DHT22;2585;48.696;10.066;2024-03-25T14:43:16;11.40;91.30
5134;DHT22;2585;48.696;10.066;2024-03-25T14:45:45;11.40;91.60
5134;DHT22;2585;48.696;10.066;2024-03-25T14:48:11;11.20;90.50
5134;DHT22;2585;48.696;10.066;2024-03-25T14:50:37;11.00;89.40
5134;DHT22;2585;48.696;10.066;2024-03-25T14:53:04;11.20;89.70
5134;DHT22;2585;48.696;10.066;2024-03-25T14:55:30;11.00;88.50
5134;DHT22;2585;48.696;10.066;2024-03-25T14:57:56;11.20;88.40
5134;DHT22;2585;48.696;10.066;2024-03-25T15:00:22;10.80;85.80
5134;DHT22;2585;48.696;10.066;2024-03-25T15:02:50;11.00;86.10
5134;DHT22;2585;48.696;10.066;2024-03-25T15:05:16;10.80;85.80
5134;DHT22;2585;48.696;10.066;2024-03-25T15:07:44;10.70;85.80
5134;DHT22;2585;48.696;10.066;2024-03-25T15:10:10;10.70;85.60
5134;DHT22;2585;48.696;10.066;2024-03-25T15:12:37;10.70;85.30
5134;DHT22;2585;48.696;10.066;2024-03-25T15:15:04;10.70;85.00
5134;DHT22;2585;48.696;10.066;2024-03-25T15:17:33;10.50;83.80
5134;DHT22;2585;48.696;10.066;2024-03-25T15:19:59;10.50;83.90
5134;DHT22;2585;48.696;10.066;2024-03-25T15:22:25;10.40;83.70
5134;DHT22;2585;48.696;10.066;2024-03-25T15:24:51;10.40;82.70
5134;DHT22;2585;48.696;10.066;2024-03-25T15:27:17;10.40;82.60
5134;DHT22;2585;48.696;10.066;2024-03-25T15:29:43;10.40;82.00
5134;DHT22;2585;48.696;10.066;2024-03-25T15:32:09;10.30;80.70
5134;DHT22;2585;48.696;10.066;2024-03-25T15:34:36;10.20;79.80
5134;DHT22;2585;48.696;10.066;2024-03-25T15:37:02;10.10;79.20
5134;DHT22;2585;48.696;10.066;2024-03-25T15:39:28;10.00;78.70
5134;DHT22;2585;48.696;10.066;2024-03-25T15:41:54;10.00;77.20
5134;DHT22;2585;48.696;10.066;2024-03-25T15:44:20;9.90;77.40
5134;DHT22;2585;48.696;10.066;2024-03-25T15:46:46;9.90;77.40
5134;DHT22;2585;48.696;10.066;2024-03-25T15:49:12;9.80;76.60
5134;DHT22;2585;48.696;10.066;2024-03-25T15:51:38;9.60;75.20
5134;DHT22;2585;48.696;10.066;2024-03-25T15:54:03;9.60;75.60
5134;DHT22;2585;48.696;10.066;2024-03-25T15:56:29;9.50;74.90
5134;DHT22;2585;48.696;10.066;2024-03-25T15:58:55;9.50;74.90
5134;DHT22;2585;48.696;10.066;2024-03-25T16:01:21;9.50;74.40
5134;DHT22;2585;48.696;10.066;2024-03-25T16:03:47;9.50;74.30